createdAt,value
2023-04-09T00:00:16.805Z,18.80
2023-04-09T00:02:43.440Z,18.58
2023-04-09T00:05:10.365Z,17.95
2023-04-09T00:07:36.906Z,16.80
2023-04-09T00:10:03.567Z,17.07
2023-04-09T00:12:30.576Z,17.45
2023-04-09T00:14:57.818Z,17.77
2023-04-09T00:17:24.611Z,17.20
2023-04-09T00:19:51.407Z,17.17
2023-04-09T00:22:18.069Z,17.67
2023-04-09T00:24:44.702Z,16.40
2023-04-09T00:27:11.336Z,16.70
2023-04-09T00:29:38.019Z,15.60
2023-04-09T00:32:04.831Z,16.90
2023-04-09T00:34:31.480Z,16.60
2023-04-09T00:36:58.097Z,17.25
2023-04-09T00:39:24.680Z,15.80
2023-04-09T00:41:57.579Z,17.10
2023-04-09T00:44:24.111Z,17.45
2023-04-09T00:46:50.799Z,17.13
2023-04-09T00:49:17.668Z,15.68
2023-04-09T00:51:45.530Z,15.52
2023-04-09T00:54:12.634Z,15.60
2023-04-09T00:56:39.240Z,16.38
2023-04-09T00:59:05.877Z,14.60
2023-04-09T01:01:32.746Z,16.38
2023-04-09T01:03:59.580Z,17.40
2023-04-09T01:06:51.262Z,17.08
2023-04-09T01:09:20.832Z,16.75
2023-04-09T01:12:15.243Z,18.83
2023-04-09T01:14:41.813Z,16.33
2023-04-09T01:17:27.607Z,16.50
2023-04-09T01:20:09.329Z,15.63
2023-04-09T01:22:56.288Z,17.13
2023-04-09T01:25:37.588Z,16.80
2023-04-09T01:28:19.216Z,16.45
2023-04-09T01:30:49.944Z,17.90
2023-04-09T01:33:19.075Z,18.33
2023-04-09T01:35:50.583Z,17.80
2023-04-09T01:38:19.817Z,17.10
2023-04-09T01:40:46.947Z,18.50
2023-04-09T01:43:14.127Z,18.27
2023-04-09T01:45:41.835Z,18.25
2023-04-09T01:48:09.424Z,17.98
2023-04-09T01:50:36.408Z,18.77
2023-04-09T01:53:03.864Z,18.73
2023-04-09T01:55:30.437Z,16.85
2023-04-09T01:57:57.086Z,19.05
2023-04-09T02:00:27.111Z,18.98
2023-04-09T02:03:13.981Z,18.37
2023-04-09T02:05:46.635Z,20.52
2023-04-09T02:08:19.273Z,20.05
2023-04-09T02:10:55.594Z,18.52
2023-04-09T02:13:23.577Z,18.27
2023-04-09T02:15:51.352Z,18.30
2023-04-09T02:18:31.223Z,18.05
2023-04-09T02:20:59.210Z,17.85
2023-04-09T02:23:27.372Z,17.75
2023-04-09T02:25:54.470Z,20.10
2023-04-09T02:28:21.083Z,17.83
2023-04-09T02:30:47.605Z,18.17
2023-04-09T02:33:14.307Z,17.55
2023-04-09T02:35:40.919Z,19.30
2023-04-09T02:38:13.820Z,17.95
2023-04-09T02:40:41.576Z,19.00
2023-04-09T02:43:09.292Z,18.33
2023-04-09T02:45:35.959Z,17.23
2023-04-09T02:50:34.727Z,18.10
2023-04-09T02:53:01.416Z,17.40
2023-04-09T02:55:28.040Z,18.52
2023-04-09T02:57:54.691Z,18.58
2023-04-09T03:00:21.394Z,18.20
2023-04-09T03:02:48.076Z,18.25
2023-04-09T03:05:14.799Z,16.07
2023-04-09T03:07:41.442Z,17.10
2023-04-09T03:10:08.340Z,18.40
2023-04-09T03:12:34.887Z,20.08
2023-04-09T03:15:01.482Z,18.67
2023-04-09T03:17:28.164Z,17.53
2023-04-09T03:19:54.785Z,18.60
2023-04-09T03:22:21.369Z,17.33
2023-04-09T03:24:48.200Z,16.85
2023-04-09T03:27:15.078Z,19.17
2023-04-09T03:29:41.602Z,18.53
2023-04-09T03:32:08.095Z,18.40
2023-04-09T03:34:34.638Z,17.45
2023-04-09T03:37:01.236Z,19.67
2023-04-09T03:39:30.990Z,19.15
2023-04-09T03:41:59.060Z,19.67
2023-04-09T03:44:26.020Z,18.73
2023-04-09T03:46:52.970Z,19.27
2023-04-09T03:49:19.716Z,20.90
2023-04-09T03:51:46.363Z,22.30
2023-04-09T03:54:13.235Z,18.63
2023-04-09T03:56:39.776Z,19.35
2023-04-09T03:59:06.727Z,17.67
2023-04-09T04:01:33.386Z,18.60
2023-04-09T04:04:00.270Z,17.98
2023-04-09T04:06:27.461Z,19.03
2023-04-09T04:08:54.410Z,19.75
2023-04-09T04:11:21.134Z,17.75
2023-04-09T04:13:47.781Z,18.70
2023-04-09T04:16:14.393Z,18.10
2023-04-09T04:18:41.062Z,16.97
2023-04-09T04:21:16.097Z,17.35
2023-04-09T04:23:43.182Z,19.17
2023-04-09T04:26:10.980Z,16.90
2023-04-09T04:28:38.481Z,17.92
2023-04-09T04:31:12.227Z,17.70
2023-04-09T04:33:41.356Z,17.83
2023-04-09T04:36:09.737Z,18.88
2023-04-09T04:38:36.681Z,19.08
2023-04-09T04:41:03.964Z,17.00
2023-04-09T04:43:30.797Z,17.40
2023-04-09T04:45:57.439Z,22.88
2023-04-09T04:48:24.812Z,19.38
2023-04-09T04:50:58.726Z,19.92
2023-04-09T04:53:25.676Z,17.52
2023-04-09T04:55:52.357Z,23.00
2023-04-09T04:58:19.239Z,19.27
2023-04-09T05:00:46.415Z,18.77
2023-04-09T05:03:13.689Z,19.63
2023-04-09T05:05:40.499Z,21.08
2023-04-09T05:08:07.106Z,21.07
2023-04-09T05:10:36.033Z,20.98
2023-04-09T05:13:02.671Z,19.58
2023-04-09T05:15:29.985Z,20.00
2023-04-09T05:17:56.726Z,19.73
2023-04-09T05:20:23.412Z,21.90
2023-04-09T05:22:50.037Z,19.88
2023-04-09T05:25:16.764Z,34.47
2023-04-09T05:27:43.411Z,38.33
2023-04-09T05:30:10.525Z,31.67
2023-04-09T05:32:37.438Z,33.33
2023-04-09T05:35:04.426Z,27.73
2023-04-09T05:37:31.038Z,27.98
2023-04-09T05:39:57.786Z,23.55
2023-04-09T05:42:24.320Z,25.40
2023-04-09T05:44:51.159Z,28.87
2023-04-09T05:47:17.829Z,26.95
2023-04-09T05:49:44.511Z,25.83
2023-04-09T05:52:11.129Z,31.45
2023-04-09T05:54:38.001Z,33.88
2023-04-09T05:57:04.737Z,35.43
2023-04-09T05:59:31.539Z,26.55
2023-04-09T06:01:58.186Z,24.15
2023-04-09T06:04:25.046Z,24.58
2023-04-09T06:06:52.002Z,24.95
2023-04-09T06:09:18.575Z,24.60
2023-04-09T06:11:45.219Z,23.75
2023-04-09T06:14:16.479Z,41.83
2023-04-09T06:16:43.171Z,49.20
2023-04-09T06:19:09.743Z,74.15
2023-04-09T06:21:36.415Z,87.63
2023-04-09T06:24:03.011Z,65.72
2023-04-09T06:26:29.585Z,29.15
2023-04-09T06:28:56.119Z,24.40
2023-04-09T06:31:22.816Z,24.33
2023-04-09T06:33:49.500Z,30.40
2023-04-09T06:36:16.148Z,30.10
2023-04-09T06:38:42.731Z,28.13
2023-04-09T06:41:09.727Z,24.25
2023-04-09T06:43:37.583Z,24.58
2023-04-09T06:46:04.238Z,21.70
2023-04-09T06:48:31.454Z,20.55
2023-04-09T06:50:58.025Z,22.88
2023-04-09T06:53:24.608Z,23.55
2023-04-09T06:55:51.464Z,21.02
2023-04-09T06:58:18.057Z,24.40
2023-04-09T07:00:44.622Z,23.55
2023-04-09T07:03:11.508Z,23.75
2023-04-09T07:05:38.200Z,24.50
2023-04-09T07:08:05.182Z,24.63
2023-04-09T07:10:31.885Z,26.70
2023-04-09T07:12:58.553Z,22.98
2023-04-09T07:15:25.154Z,23.05
2023-04-09T07:17:51.784Z,21.67
2023-04-09T07:20:18.534Z,22.02
2023-04-09T07:22:45.102Z,21.57
2023-04-09T07:25:12.005Z,23.17
2023-04-09T07:27:38.584Z,23.85
2023-04-09T07:30:05.837Z,21.98
2023-04-09T07:32:32.597Z,19.75
2023-04-09T07:34:59.704Z,20.97
2023-04-09T07:37:27.176Z,23.90
2023-04-09T07:39:53.799Z,19.90
2023-04-09T07:42:20.528Z,19.23
2023-04-09T07:44:47.710Z,19.38
2023-04-09T07:47:14.695Z,20.77
2023-04-09T07:49:41.558Z,19.77
2023-04-09T07:52:08.412Z,21.48
2023-04-09T07:54:35.671Z,20.55
2023-04-09T07:57:02.842Z,20.65
2023-04-09T07:59:30.898Z,20.37
2023-04-09T08:01:57.745Z,19.90
2023-04-09T08:04:24.755Z,19.70
2023-04-09T08:06:51.496Z,20.63
2023-04-09T08:09:18.663Z,21.83
2023-04-09T08:11:48.757Z,19.30
2023-04-09T08:14:16.673Z,18.45
2023-04-09T08:16:45.327Z,17.08
2023-04-09T08:19:12.631Z,21.95
2023-04-09T08:21:43.205Z,21.20
2023-04-09T08:24:11.644Z,19.57
2023-04-09T08:26:38.921Z,19.90
2023-04-09T08:29:05.641Z,20.02
2023-04-09T08:31:32.391Z,21.02
2023-04-09T08:33:59.047Z,20.65
2023-04-09T08:36:26.423Z,18.07
2023-04-09T08:38:56.286Z,19.25
2023-04-09T08:41:24.955Z,18.73
2023-04-09T08:46:23.514Z,20.02
2023-04-09T08:48:52.081Z,19.93
2023-04-09T08:51:21.884Z,19.58
2023-04-09T08:53:53.558Z,20.02
2023-04-09T08:56:22.058Z,19.92
2023-04-09T08:58:48.718Z,18.77
2023-04-09T09:01:31.851Z,18.73
2023-04-09T09:04:09.268Z,18.52
2023-04-09T09:06:38.424Z,20.95
2023-04-09T09:09:18.952Z,20.33
2023-04-09T09:11:48.524Z,18.80
2023-04-09T09:14:19.533Z,19.30
2023-04-09T09:17:04.807Z,19.55
2023-04-09T09:19:36.752Z,20.02
2023-04-09T09:22:12.731Z,21.75
2023-04-09T09:24:49.804Z,19.48
2023-04-09T09:27:37.211Z,18.97
2023-04-09T09:30:05.832Z,18.40
2023-04-09T09:32:33.513Z,21.10
2023-04-09T09:35:03.261Z,19.85
2023-04-09T09:37:31.278Z,20.10
2023-04-09T09:39:58.980Z,20.70
2023-04-09T09:42:27.180Z,19.55
2023-04-09T09:44:55.363Z,16.80
2023-04-09T09:47:23.624Z,17.25
2023-04-09T09:49:51.407Z,16.42
2023-04-09T09:52:24.920Z,18.87
2023-04-09T09:54:53.430Z,17.42
2023-04-09T09:57:23.789Z,19.73
2023-04-09T10:00:02.422Z,18.50
2023-04-09T10:02:37.376Z,16.48
2023-04-09T10:05:06.559Z,15.17
2023-04-09T10:07:33.210Z,15.95
2023-04-09T10:10:01.731Z,14.23
2023-04-09T10:12:28.761Z,19.10
2023-04-09T10:14:56.684Z,15.00
2023-04-09T10:17:23.293Z,15.13
2023-04-09T10:19:59.462Z,15.40
2023-04-09T10:22:29.657Z,15.35
2023-04-09T10:24:58.194Z,14.60
2023-04-09T10:27:27.312Z,15.23
2023-04-09T10:29:53.989Z,15.43
2023-04-09T10:32:26.870Z,14.95
2023-04-09T10:34:57.602Z,14.88
2023-04-09T10:37:28.208Z,14.45
2023-04-09T10:39:54.924Z,18.23
2023-04-09T10:42:41.223Z,17.73
2023-04-09T10:45:10.092Z,13.65
2023-04-09T10:47:39.230Z,12.63
2023-04-09T10:50:17.080Z,14.70
2023-04-09T10:52:44.624Z,16.35
2023-04-09T10:55:31.415Z,14.93
2023-04-09T10:57:58.646Z,15.25
2023-04-09T11:00:25.557Z,15.70
2023-04-09T11:03:08.045Z,17.20
2023-04-09T11:05:39.439Z,16.92
2023-04-09T11:08:14.346Z,11.77
2023-04-09T11:10:44.198Z,12.35
2023-04-09T11:13:18.581Z,10.68
2023-04-09T11:15:46.160Z,11.23
2023-04-09T11:18:20.845Z,10.15
2023-04-09T11:20:47.689Z,11.53
2023-04-09T11:23:17.911Z,10.65
2023-04-09T11:25:49.399Z,11.68
2023-04-09T11:28:16.110Z,12.95
2023-04-09T11:30:43.848Z,13.23
2023-04-09T11:33:10.751Z,13.83
2023-04-09T11:35:37.564Z,12.20
2023-04-09T11:38:11.927Z,11.05
2023-04-09T11:40:48.098Z,11.95
2023-04-09T11:43:18.973Z,12.02
2023-04-09T11:45:48.668Z,12.47
2023-04-09T11:48:18.521Z,13.20
2023-04-09T11:50:45.910Z,13.15
2023-04-09T11:53:22.910Z,13.02
2023-04-09T11:55:53.740Z,14.02
2023-04-09T11:58:26.453Z,13.83
2023-04-09T12:00:55.150Z,13.48
2023-04-09T12:03:29.926Z,13.65
2023-04-09T12:05:56.828Z,14.30
2023-04-09T12:08:25.020Z,14.07
2023-04-09T12:10:53.817Z,13.97
2023-04-09T12:13:21.348Z,13.55
2023-04-09T12:15:49.962Z,14.18
2023-04-09T12:18:16.792Z,15.48
2023-04-09T12:20:44.649Z,15.57
2023-04-09T12:23:12.782Z,15.00
2023-04-09T12:25:41.537Z,15.50
2023-04-09T12:28:09.786Z,15.30
2023-04-09T12:30:36.642Z,15.65
2023-04-09T12:33:04.538Z,16.92
2023-04-09T12:35:32.035Z,15.00
2023-04-09T12:37:59.570Z,14.50
2023-04-09T12:40:26.772Z,14.77
2023-04-09T12:42:54.156Z,14.45
2023-04-09T12:45:21.257Z,13.70
2023-04-09T12:47:48.392Z,13.33
2023-04-09T12:50:16.387Z,12.38
2023-04-09T12:52:43.578Z,13.55
2023-04-09T12:55:10.827Z,13.63
2023-04-09T12:57:38.928Z,12.15
2023-04-09T13:00:08.510Z,12.57
2023-04-09T13:02:36.091Z,12.55
2023-04-09T13:05:05.668Z,12.50
2023-04-09T13:07:32.252Z,12.07
2023-04-09T13:09:58.963Z,12.30
2023-04-09T13:12:25.967Z,11.30
2023-04-09T13:14:54.748Z,12.10
2023-04-09T13:17:22.108Z,11.85
2023-04-09T13:19:49.997Z,11.82
2023-04-09T13:22:16.950Z,11.18
2023-04-09T13:24:43.621Z,12.30
2023-04-09T13:27:11.431Z,11.57
2023-04-09T13:29:38.213Z,12.70
2023-04-09T13:32:07.741Z,12.55
2023-04-09T13:34:35.603Z,12.20
2023-04-09T13:37:03.617Z,12.17
2023-04-09T13:39:30.592Z,11.85
2023-04-09T13:41:57.369Z,13.90
2023-04-09T13:44:25.390Z,13.63
2023-04-09T13:46:54.196Z,13.50
2023-04-09T13:49:21.252Z,12.20
2023-04-09T13:51:49.416Z,14.25
2023-04-09T13:54:16.395Z,13.32
2023-04-09T13:56:44.638Z,13.27
2023-04-09T13:59:11.706Z,13.40
2023-04-09T14:01:38.401Z,13.47
2023-04-09T14:04:05.251Z,14.93
2023-04-09T14:06:32.132Z,14.05
2023-04-09T14:08:58.726Z,14.30
2023-04-09T14:11:25.516Z,14.20
2023-04-09T14:13:52.398Z,15.43
2023-04-09T14:16:19.510Z,17.08
2023-04-09T14:18:46.457Z,16.17
2023-04-09T14:21:13.110Z,16.00
2023-04-09T14:23:40.183Z,15.80
2023-04-09T14:26:07.141Z,16.07
2023-04-09T14:28:33.790Z,13.63
2023-04-09T14:31:00.748Z,13.80
2023-04-09T14:33:27.598Z,15.70
2023-04-09T14:35:54.375Z,14.75
2023-04-09T14:38:21.065Z,14.43
2023-04-09T14:40:47.657Z,16.15
2023-04-09T14:43:14.273Z,15.27
2023-04-09T14:45:41.224Z,13.77
2023-04-09T14:48:08.680Z,13.30
2023-04-09T14:50:36.922Z,13.77
2023-04-09T14:53:04.280Z,14.10
2023-04-09T14:55:31.049Z,14.73
2023-04-09T14:57:59.229Z,12.68
2023-04-09T15:00:25.898Z,13.05
2023-04-09T15:02:52.828Z,12.90
2023-04-09T15:05:19.626Z,14.27
2023-04-09T15:07:46.368Z,12.77
2023-04-09T15:10:13.078Z,13.32
2023-04-09T15:12:39.844Z,13.73
2023-04-09T15:15:08.391Z,11.87
2023-04-09T15:17:35.220Z,13.73
2023-04-09T15:20:01.996Z,12.75
2023-04-09T15:22:28.587Z,12.98
2023-04-09T15:24:55.198Z,12.52
2023-04-09T15:27:21.791Z,12.83
2023-04-09T15:29:48.423Z,12.70
2023-04-09T15:32:15.050Z,13.38
2023-04-09T15:34:41.682Z,12.25
2023-04-09T15:37:08.357Z,12.63
2023-04-09T15:39:35.273Z,13.20
2023-04-09T15:42:02.253Z,12.27
2023-04-09T15:44:29.262Z,12.77
2023-04-09T15:46:56.220Z,12.10
2023-04-09T15:49:23.572Z,12.80
2023-04-09T15:51:50.254Z,11.80
2023-04-09T15:54:16.918Z,11.95
2023-04-09T15:56:43.561Z,12.30
2023-04-09T15:59:10.202Z,12.20
2023-04-09T16:01:36.946Z,11.40
2023-04-09T16:04:04.934Z,11.47
2023-04-09T16:06:31.977Z,12.68
2023-04-09T16:08:58.752Z,13.23
2023-04-09T16:11:26.134Z,12.13
2023-04-09T16:13:52.871Z,11.68
2023-04-09T16:16:19.720Z,12.10
2023-04-09T16:18:46.321Z,13.38
2023-04-09T16:21:12.998Z,12.07
2023-04-09T16:23:39.961Z,11.75
2023-04-09T16:26:07.039Z,12.00
2023-04-09T16:28:33.867Z,13.93
2023-04-09T16:31:00.575Z,11.98
2023-04-09T16:33:27.297Z,13.13
2023-04-09T16:35:53.931Z,11.50
2023-04-09T16:38:20.589Z,22.38
2023-04-09T16:40:47.254Z,12.47
2023-04-09T16:43:13.883Z,11.07
2023-04-09T16:45:40.554Z,10.80
2023-04-09T16:48:12.344Z,10.82
2023-04-09T16:50:40.490Z,11.25
2023-04-09T16:53:07.824Z,11.03
2023-04-09T16:55:35.283Z,11.15
2023-04-09T16:58:01.955Z,11.27
2023-04-09T17:00:28.688Z,12.20
2023-04-09T17:02:56.841Z,14.70
2023-04-09T17:05:23.778Z,13.60
2023-04-09T17:07:50.605Z,12.90
2023-04-09T17:10:18.696Z,13.75
2023-04-09T17:12:45.926Z,10.65
2023-04-09T17:15:12.514Z,11.60
2023-04-09T17:17:39.256Z,11.70
2023-04-09T17:20:06.617Z,10.18
2023-04-09T17:22:35.177Z,11.70
2023-04-09T17:25:02.622Z,11.00
2023-04-09T17:27:29.338Z,10.23
2023-04-09T17:29:56.167Z,11.00
2023-04-09T17:32:22.820Z,10.77
2023-04-09T17:34:49.630Z,12.90
2023-04-09T17:37:16.457Z,12.20
2023-04-09T17:39:43.091Z,12.52
2023-04-09T17:42:11.898Z,10.33
2023-04-09T17:44:38.796Z,10.68
2023-04-09T17:47:07.570Z,10.95
2023-04-09T17:49:34.373Z,11.07
2023-04-09T17:52:01.342Z,10.80
2023-04-09T17:54:35.427Z,11.70
2023-04-09T17:57:04.253Z,11.70
2023-04-09T17:59:31.326Z,11.73
2023-04-09T18:01:58.118Z,12.63
2023-04-09T18:04:25.297Z,11.50
2023-04-09T18:06:52.659Z,15.17
2023-04-09T18:09:19.419Z,16.60
2023-04-09T18:11:46.528Z,14.30
2023-04-09T18:14:13.261Z,13.65
2023-04-09T18:16:40.199Z,14.05
2023-04-09T18:19:07.440Z,13.30
2023-04-09T18:21:36.585Z,12.90
2023-04-09T18:24:03.850Z,13.43
2023-04-09T18:26:30.927Z,13.68
2023-04-09T18:29:00.165Z,14.45
2023-04-09T18:31:27.614Z,17.57
2023-04-09T18:33:54.267Z,19.02
2023-04-09T18:36:20.784Z,15.95
2023-04-09T18:38:47.384Z,16.63
2023-04-09T18:41:21.092Z,15.65
2023-04-09T18:43:48.451Z,14.97
2023-04-09T18:46:15.091Z,14.93
2023-04-09T18:48:43.429Z,16.13
2023-04-09T18:51:10.797Z,16.17
2023-04-09T18:53:37.909Z,17.08
2023-04-09T18:56:04.619Z,15.83
2023-04-09T18:58:31.416Z,17.73
2023-04-09T19:00:58.338Z,17.45
2023-04-09T19:03:25.799Z,16.05
2023-04-09T19:05:53.740Z,15.93
2023-04-09T19:08:20.315Z,17.37
2023-04-09T19:10:47.883Z,18.08
2023-04-09T19:13:14.554Z,17.33
2023-04-09T19:15:41.126Z,18.60
2023-04-09T19:18:07.871Z,19.23
2023-04-09T19:20:34.399Z,17.90
2023-04-09T19:23:01.163Z,19.77
2023-04-09T19:25:28.869Z,18.83
2023-04-09T19:27:55.447Z,19.08
2023-04-09T19:30:22.105Z,21.35
2023-04-09T19:32:48.795Z,20.20
2023-04-09T19:35:15.627Z,18.98
2023-04-09T19:37:42.733Z,19.60
2023-04-09T19:40:09.850Z,18.33
2023-04-09T19:42:36.646Z,19.58
2023-04-09T19:45:03.358Z,20.00
2023-04-09T19:47:30.007Z,21.25
2023-04-09T19:49:56.667Z,26.00
2023-04-09T19:52:23.255Z,37.40
2023-04-09T19:54:55.191Z,34.35
2023-04-09T19:57:22.643Z,38.67
2023-04-09T19:59:49.953Z,41.45
2023-04-09T20:02:16.838Z,37.20
2023-04-09T20:04:43.600Z,34.88
2023-04-09T20:07:10.163Z,35.63
2023-04-09T20:09:41.432Z,36.00
2023-04-09T20:12:09.647Z,34.45
2023-04-09T20:14:38.329Z,36.78
2023-04-09T20:17:06.219Z,38.42
2023-04-09T20:19:32.819Z,32.40
2023-04-09T20:22:00.454Z,31.83
2023-04-09T20:24:28.260Z,27.08
2023-04-09T20:26:56.413Z,22.98
2023-04-09T20:29:23.000Z,25.27
2023-04-09T20:31:49.607Z,23.88
2023-04-09T20:34:16.282Z,25.33
2023-04-09T20:36:44.063Z,24.23
2023-04-09T20:39:11.764Z,22.65
2023-04-09T20:41:38.508Z,22.83
2023-04-09T20:44:05.060Z,21.30
2023-04-09T20:46:31.843Z,22.23
2023-04-09T20:48:58.326Z,20.70
2023-04-09T20:51:24.867Z,23.33
2023-04-09T20:53:51.386Z,26.17
2023-04-09T20:56:18.597Z,24.40
2023-04-09T20:58:45.146Z,27.53
2023-04-09T21:01:11.748Z,26.73
2023-04-09T21:03:40.234Z,24.95
2023-04-09T21:06:07.313Z,23.88
2023-04-09T21:08:34.232Z,23.90
2023-04-09T21:11:00.918Z,19.33
2023-04-09T21:13:27.544Z,21.27
2023-04-09T21:15:54.119Z,19.77
2023-04-09T21:18:20.687Z,22.13
2023-04-09T21:20:47.719Z,20.25
2023-04-09T21:23:14.417Z,20.30
2023-04-09T21:25:41.590Z,20.40
2023-04-09T21:28:08.437Z,22.98
2023-04-09T21:30:35.773Z,20.00
2023-04-09T21:33:03.797Z,22.33
2023-04-09T21:35:30.701Z,20.57
2023-04-09T21:37:57.499Z,22.63
2023-04-09T21:40:24.532Z,22.08
2023-04-09T21:42:51.606Z,23.17
2023-04-09T21:45:18.163Z,20.95
2023-04-09T21:47:45.568Z,25.03
2023-04-09T21:50:12.228Z,23.90
2023-04-09T21:52:38.780Z,24.52
2023-04-09T21:55:05.867Z,24.30
2023-04-09T21:57:32.530Z,25.02
2023-04-09T21:59:59.158Z,24.73
2023-04-09T22:02:28.147Z,31.40
2023-04-09T22:04:54.906Z,39.13
2023-04-09T22:07:21.474Z,37.53
2023-04-09T22:09:47.994Z,41.78
2023-04-09T22:12:14.515Z,40.10
2023-04-09T22:14:41.961Z,41.38
2023-04-09T22:17:08.957Z,42.53
2023-04-09T22:19:35.548Z,35.90
2023-04-09T22:22:02.282Z,31.98
2023-04-09T22:24:30.424Z,25.07
2023-04-09T22:26:59.235Z,25.92
2023-04-09T22:29:29.341Z,22.65
2023-04-09T22:31:56.651Z,19.85
2023-04-09T22:34:23.195Z,20.88
2023-04-09T22:36:49.737Z,23.53
2023-04-09T22:39:16.472Z,18.35
2023-04-09T22:41:43.160Z,21.48
2023-04-09T22:44:09.772Z,21.20
2023-04-09T22:46:36.788Z,20.58
2023-04-09T22:49:05.572Z,19.27
2023-04-09T22:51:34.953Z,20.25
2023-04-09T22:54:02.286Z,21.40
2023-04-09T22:56:30.240Z,21.60
2023-04-09T22:58:56.785Z,21.80
2023-04-09T23:01:23.540Z,20.47
2023-04-09T23:03:50.638Z,21.05
2023-04-09T23:06:17.393Z,19.88
2023-04-09T23:08:44.622Z,21.30
2023-04-09T23:11:11.496Z,20.40
2023-04-09T23:13:38.896Z,19.57
2023-04-09T23:16:07.600Z,19.02
2023-04-09T23:18:35.853Z,20.50
2023-04-09T23:21:09.898Z,21.88
2023-04-09T23:23:37.626Z,18.15
2023-04-09T23:26:04.617Z,22.70
2023-04-09T23:28:31.660Z,20.50
2023-04-09T23:30:58.278Z,23.45
2023-04-09T23:33:24.950Z,22.20
2023-04-09T23:35:51.704Z,20.77
2023-04-09T23:38:18.411Z,19.97
2023-04-09T23:40:47.313Z,20.13
2023-04-09T23:43:14.134Z,20.67
2023-04-09T23:45:40.730Z,19.02
2023-04-09T23:48:08.966Z,19.67
2023-04-09T23:50:39.173Z,20.90
2023-04-09T23:53:05.689Z,20.67
2023-04-09T23:55:33.568Z,19.85
2023-04-09T23:58:00.124Z,19.65
